createdAt,value
2023-03-01T00:01:31.310Z,51.88
2023-03-01T00:03:59.272Z,51.89
2023-03-01T00:06:27.086Z,51.86
2023-03-01T00:08:54.239Z,51.45
2023-03-01T00:11:26.779Z,51.75
2023-03-01T00:13:56.393Z,52.06
2023-03-01T00:16:35.277Z,52.01
2023-03-01T00:19:02.936Z,52.15
2023-03-01T00:21:29.980Z,52.23
2023-03-01T00:23:57.611Z,52.57
2023-03-01T00:26:25.970Z,52.55
2023-03-01T00:28:53.184Z,52.31
2023-03-01T00:31:23.304Z,52.30
2023-03-01T00:33:54.939Z,52.20
2023-03-01T00:36:21.918Z,52.17
2023-03-01T00:38:49.037Z,52.41
2023-03-01T00:41:18.178Z,52.18
2023-03-01T00:43:46.348Z,52.39
2023-03-01T00:46:18.694Z,52.27
2023-03-01T00:48:46.249Z,52.69
2023-03-01T00:51:22.072Z,53.33
2023-03-01T00:53:51.636Z,53.24
2023-03-01T00:56:19.198Z,52.63
2023-03-01T00:58:46.183Z,52.69
2023-03-01T01:01:23.639Z,53.26
2023-03-01T01:03:55.828Z,52.91
2023-03-01T01:06:29.140Z,52.59
2023-03-01T01:08:56.770Z,52.10
2023-03-01T01:11:27.788Z,52.10
2023-03-01T01:13:55.240Z,52.41
2023-03-01T01:16:25.428Z,51.89
2023-03-01T01:18:53.378Z,52.38
2023-03-01T01:21:23.928Z,52.77
2023-03-01T01:23:52.417Z,53.19
2023-03-01T01:26:31.670Z,53.23
2023-03-01T01:29:00.516Z,53.32
2023-03-01T01:31:28.221Z,53.73
2023-03-01T01:33:56.067Z,53.62
2023-03-01T01:36:23.546Z,53.80
2023-03-01T01:38:50.724Z,53.51
2023-03-01T01:41:18.856Z,53.49
2023-03-01T01:43:49.986Z,53.54
2023-03-01T01:46:30.254Z,53.32
2023-03-01T01:49:02.978Z,53.51
2023-03-01T01:51:39.757Z,53.32
2023-03-01T01:54:20.386Z,53.39
2023-03-01T01:56:54.980Z,53.56
2023-03-01T01:59:25.746Z,53.58
2023-03-01T02:01:54.205Z,53.34
2023-03-01T02:04:22.207Z,53.28
2023-03-01T02:06:58.607Z,53.08
2023-03-01T02:09:25.645Z,52.91
2023-03-01T02:11:53.238Z,52.90
2023-03-01T02:14:20.255Z,52.75
2023-03-01T02:16:47.861Z,52.96
2023-03-01T02:19:44.267Z,52.44
2023-03-01T02:22:28.911Z,52.45
2023-03-01T02:25:13.505Z,52.37
2023-03-01T02:27:49.471Z,52.41
2023-03-01T02:30:16.986Z,52.46
2023-03-01T02:32:44.866Z,52.31
2023-03-01T02:35:16.385Z,52.56
2023-03-01T02:37:44.431Z,52.66
2023-03-01T02:40:22.743Z,52.62
2023-03-01T02:42:56.958Z,52.97
2023-03-01T02:45:25.265Z,53.22
2023-03-01T02:47:56.375Z,53.17
2023-03-01T02:50:29.317Z,53.39
2023-03-01T02:53:12.279Z,53.10
2023-03-01T02:55:39.809Z,53.01
2023-03-01T02:58:06.982Z,52.99
2023-03-01T03:00:45.259Z,52.92
2023-03-01T03:03:22.040Z,53.16
2023-03-01T03:05:49.575Z,53.41
2023-03-01T03:08:25.253Z,53.20
2023-03-01T03:10:54.164Z,53.40
2023-03-01T03:13:23.294Z,53.37
2023-03-01T03:15:50.986Z,53.45
2023-03-01T03:18:18.827Z,54.12
2023-03-01T03:20:46.489Z,54.51
2023-03-01T03:23:14.296Z,54.71
2023-03-01T03:25:41.238Z,54.65
2023-03-01T03:28:11.568Z,54.95
2023-03-01T03:30:41.575Z,54.95
2023-03-01T03:33:12.936Z,54.86
2023-03-01T03:35:46.786Z,54.72
2023-03-01T03:38:18.696Z,54.64
2023-03-01T03:40:49.849Z,54.49
2023-03-01T03:43:19.367Z,54.39
2023-03-01T03:45:47.922Z,54.47
2023-03-01T03:48:15.486Z,54.05
2023-03-01T03:50:43.179Z,54.16
2023-03-01T03:53:12.536Z,53.98
2023-03-01T03:55:43.075Z,54.22
2023-03-01T03:58:11.398Z,54.26
2023-03-01T04:00:39.622Z,54.03
2023-03-01T04:03:07.411Z,53.63
2023-03-01T04:05:35.235Z,52.94
2023-03-01T04:08:02.337Z,52.88
2023-03-01T04:10:37.555Z,53.06
2023-03-01T04:13:05.940Z,53.09
2023-03-01T04:15:33.626Z,53.19
2023-03-01T04:18:01.598Z,53.16
2023-03-01T04:20:31.912Z,53.35
2023-03-01T04:23:11.871Z,53.41
2023-03-01T04:25:42.785Z,53.17
2023-03-01T04:28:10.726Z,52.95
2023-03-01T04:30:39.898Z,53.17
2023-03-01T04:33:08.716Z,53.06
2023-03-01T04:35:37.194Z,53.37
2023-03-01T04:38:05.136Z,53.24
2023-03-01T04:40:32.602Z,53.35
2023-03-01T04:42:59.536Z,53.94
2023-03-01T04:45:27.007Z,53.95
2023-03-01T04:47:59.945Z,54.25
2023-03-01T04:50:27.088Z,54.37
2023-03-01T04:52:54.366Z,54.47
2023-03-01T04:55:21.361Z,54.27
2023-03-01T04:57:48.317Z,54.09
2023-03-01T05:00:21.927Z,54.00
2023-03-01T05:02:56.198Z,53.97
2023-03-01T05:05:26.855Z,53.80
2023-03-01T05:07:55.515Z,53.94
2023-03-01T05:10:23.917Z,54.53
2023-03-01T05:12:51.095Z,54.67
2023-03-01T05:15:18.130Z,54.90
2023-03-01T05:17:45.977Z,54.80
2023-03-01T05:20:13.296Z,55.21
2023-03-01T05:22:40.503Z,54.65
2023-03-01T05:25:08.461Z,54.83
2023-03-01T05:27:36.743Z,55.03
2023-03-01T05:30:14.544Z,55.09
2023-03-01T05:32:44.584Z,54.80
2023-03-01T05:35:17.603Z,54.71
2023-03-01T05:37:47.626Z,54.47
2023-03-01T05:40:25.461Z,54.41
2023-03-01T05:42:57.399Z,54.22
2023-03-01T05:45:26.422Z,54.08
2023-03-01T05:47:54.181Z,54.42
2023-03-01T05:50:28.468Z,54.77
2023-03-01T05:53:02.010Z,55.36
2023-03-01T05:55:30.826Z,55.47
2023-03-01T05:58:02.821Z,55.41
2023-03-01T06:00:31.282Z,55.50
2023-03-01T06:02:59.827Z,55.78
2023-03-01T06:05:28.160Z,55.80
2023-03-01T06:07:55.561Z,55.44
2023-03-01T06:10:24.001Z,55.06
2023-03-01T06:12:51.145Z,54.79
2023-03-01T06:15:18.792Z,54.71
2023-03-01T06:17:47.466Z,54.45
2023-03-01T06:20:22.952Z,53.74
2023-03-01T06:22:50.991Z,53.28
2023-03-01T06:25:20.908Z,53.17
2023-03-01T06:27:49.945Z,53.20
2023-03-01T06:30:19.474Z,53.12
2023-03-01T06:32:46.867Z,53.46
2023-03-01T06:35:16.107Z,53.63
2023-03-01T06:37:43.195Z,53.74
2023-03-01T06:40:12.835Z,53.94
2023-03-01T06:42:42.237Z,53.59
2023-03-01T06:45:20.928Z,53.70
2023-03-01T06:47:48.423Z,53.75
2023-03-01T06:50:16.708Z,53.57
2023-03-01T06:55:14.303Z,53.22
2023-03-01T06:57:41.453Z,53.40
2023-03-01T07:00:09.386Z,53.06
2023-03-01T07:02:36.509Z,53.33
2023-03-01T07:05:03.659Z,53.20
2023-03-01T07:07:30.636Z,53.23
2023-03-01T07:09:57.668Z,53.37
2023-03-01T07:12:24.634Z,52.89
2023-03-01T07:14:51.763Z,52.84
2023-03-01T07:17:18.724Z,52.67
2023-03-01T07:19:46.258Z,52.96
2023-03-01T07:22:13.366Z,52.62
2023-03-01T07:24:40.256Z,52.74
2023-03-01T07:27:07.208Z,52.16
2023-03-01T07:29:34.364Z,52.51
2023-03-01T07:32:01.429Z,52.14
2023-03-01T07:34:28.409Z,52.34
2023-03-01T07:36:55.423Z,52.27
2023-03-01T07:39:24.232Z,51.76
2023-03-01T07:41:51.782Z,51.69
2023-03-01T07:44:22.412Z,51.82
2023-03-01T07:46:49.607Z,51.54
2023-03-01T07:49:16.532Z,51.39
2023-03-01T07:51:44.660Z,51.05
2023-03-01T07:54:11.661Z,50.94
2023-03-01T07:56:38.605Z,51.11
2023-03-01T07:59:05.620Z,50.93
2023-03-01T08:01:32.630Z,50.55
2023-03-01T08:03:59.610Z,50.47
2023-03-01T08:06:26.711Z,50.59
2023-03-01T08:08:53.599Z,50.39
2023-03-01T08:11:20.569Z,50.91
2023-03-01T08:13:51.746Z,50.62
2023-03-01T08:16:20.341Z,51.16
2023-03-01T08:18:47.682Z,51.32
2023-03-01T08:21:17.903Z,51.62
2023-03-01T08:23:45.601Z,51.40
2023-03-01T08:26:23.196Z,50.91
2023-03-01T08:28:50.872Z,50.89
2023-03-01T08:31:25.443Z,50.83
2023-03-01T08:33:58.879Z,51.18
2023-03-01T08:36:32.172Z,50.92
2023-03-01T08:38:59.686Z,50.94
2023-03-01T08:41:27.745Z,51.00
2023-03-01T08:43:59.877Z,51.04
2023-03-01T08:46:32.673Z,50.85
2023-03-01T08:48:59.913Z,50.87
2023-03-01T08:51:27.727Z,50.74
2023-03-01T08:53:55.098Z,51.13
2023-03-01T08:56:22.120Z,51.07
2023-03-01T08:58:50.018Z,51.10
2023-03-01T09:01:19.427Z,50.51
2023-03-01T09:03:46.790Z,50.56
2023-03-01T09:06:15.035Z,50.59
2023-03-01T09:08:46.366Z,50.36
2023-03-01T09:11:17.843Z,50.43
2023-03-01T09:13:45.772Z,50.25
2023-03-01T09:16:14.501Z,49.77
2023-03-01T09:18:41.851Z,49.91
2023-03-01T09:21:12.395Z,50.03
2023-03-01T09:23:45.060Z,49.50
2023-03-01T09:26:17.560Z,49.54
2023-03-01T09:28:45.704Z,49.44
2023-03-01T09:31:14.172Z,49.99
2023-03-01T09:33:43.475Z,49.74
2023-03-01T09:36:15.468Z,49.56
2023-03-01T09:38:43.109Z,49.97
2023-03-01T09:41:23.532Z,49.68
2023-03-01T09:44:13.623Z,49.64
2023-03-01T09:46:44.388Z,49.54
2023-03-01T09:49:22.642Z,49.48
2023-03-01T09:52:01.266Z,49.48
2023-03-01T09:54:28.680Z,49.34
2023-03-01T09:57:11.219Z,49.47
2023-03-01T09:59:58.546Z,48.82
2023-03-01T10:02:30.218Z,49.02
2023-03-01T10:05:19.660Z,48.69
2023-03-01T10:07:53.627Z,48.87
2023-03-01T10:10:45.150Z,48.58
2023-03-01T10:13:15.471Z,48.28
